Time;durP1;ratioP1;P1;durP2;ratioP2;P2;SDS_P1;SDS_P2;PMS_P1;PMS_P2;Temp;Humidity;BMP_temperature;BMP_pressure;BME280_temperature;BME280_humidity;BME280_pressure;Samples;Min_cycle;Max_cycle;Signal;HPM_P1;HPM_P2
2021/08/29 00:00:05;;;;;;;15.35;8.75;;;;;;;;;;6126049;23;20438;-71
2021/08/29 00:02:31;;;;;;;10.52;8.13;;;;;;;;;;6100174;23;20507;-72
2021/08/29 00:04:56;;;;;;;9.32;7.78;;;;;;;;;;6126160;23;20006;-72
2021/08/29 00:07:22;;;;;;;10.93;8.07;;;;;;;;;;6126249;23;20352;-72
2021/08/29 00:09:48;;;;;;;15.45;8.93;;;;;;;;;;6126111;23;20005;-71
2021/08/29 00:12:15;;;;;;;14.23;8.65;;;;;;;;;;6126543;23;20028;-72
2021/08/29 00:14:40;;;;;;;15.30;8.27;;;;;;;;;;6125912;23;20004;-72
2021/08/29 00:17:06;;;;;;;11.38;7.50;;;;;;;;;;6126309;23;20400;-73
2021/08/29 00:19:33;;;;;;;10.88;8.45;;;;;;;;;;6126237;23;20022;-72
2021/08/29 00:21:59;;;;;;;10.95;8.48;;;;;;;;;;6126138;23;20005;-72
2021/08/29 00:24:24;;;;;;;10.35;8.48;;;;;;;;;;6126153;23;20025;-72
2021/08/29 00:26:51;;;;;;;10.45;8.82;;;;;;;;;;6126096;23;20441;-72
2021/08/29 00:29:17;;;;;;;10.95;8.63;;;;;;;;;;6126088;23;20462;-71
2021/08/29 00:31:44;;;;;;;13.25;8.27;;;;;;;;;;6100010;23;20006;-72
2021/08/29 00:34:10;;;;;;;13.10;8.82;;;;;;;;;;6100193;23;20008;-72
2021/08/29 00:36:36;;;;;;;10.43;8.98;;;;;;;;;;6126032;23;19998;-72
2021/08/29 00:39:02;;;;;;;11.45;9.48;;;;;;;;;;6126086;23;19998;-72
2021/08/29 00:41:29;;;;;;;12.73;9.50;;;;;;;;;;6126414;23;20137;-72
2021/08/29 00:43:54;;;;;;;13.20;9.45;;;;;;;;;;6099819;23;20133;-72
2021/08/29 00:46:20;;;;;;;16.23;9.43;;;;;;;;;;6099978;23;20014;-72
2021/08/29 00:48:49;;;;;;;13.07;9.15;;;;;;;;;;6125953;23;20490;-72
2021/08/29 00:51:16;;;;;;;12.32;8.45;;;;;;;;;;6100213;23;20040;-72
2021/08/29 00:53:46;;;;;;;9.93;8.38;;;;;;;;;;6125850;23;20056;-73
2021/08/29 00:56:12;;;;;;;10.23;8.48;;;;;;;;;;6125809;23;19997;-71
2021/08/29 00:58:38;;;;;;;10.88;8.60;;;;;;;;;;6125659;23;20001;-72
2021/08/29 01:01:04;;;;;;;12.48;8.43;;;;;;;;;;6126004;23;20002;-72
2021/08/29 01:03:30;;;;;;;14.75;9.18;;;;;;;;;;6125703;23;20002;-72
2021/08/29 01:06:02;;;;;;;15.35;9.10;;;;;;;;;;6099928;23;20033;-72
2021/08/29 01:08:32;;;;;;;14.52;9.00;;;;;;;;;;6067724;23;20015;-72
2021/08/29 01:10:57;;;;;;;;;;;;;;;;;;6068239;23;20447;-72
2021/08/29 01:13:29;;;;;;;10.07;8.57;;;;;;;;;;6067980;23;19980;-72
2021/08/29 01:16:00;;;;;;;16.70;8.82;;;;;;;;;;6067800;23;20226;-72
2021/08/29 01:18:27;;;;;;;14.05;9.32;;;;;;;;;;6066338;23;20401;-73
2021/08/29 01:21:02;;;;;;;10.68;8.18;;;;;;;;;;6067999;23;20006;-72
2021/08/29 01:23:29;;;;;;;11.50;8.80;;;;;;;;;;6082763;23;20022;-72
2021/08/29 01:26:13;;;;;;;15.63;8.40;;;;;;;;;;6067356;23;20006;-72
2021/08/29 01:28:55;;;;;;;16.95;8.38;;;;;;;;;;6067549;23;19999;-72
2021/08/29 01:31:22;;;;;;;10.48;8.10;;;;;;;;;;6067936;23;20460;-72
2021/08/29 01:33:49;;;;;;;12.15;8.63;;;;;;;;;;6066130;23;20002;-72
2021/08/29 01:36:15;;;;;;;10.68;8.45;;;;;;;;;;6066367;23;19995;-72
2021/08/29 01:38:43;;;;;;;9.48;7.80;;;;;;;;;;6068089;23;20329;-72
2021/08/29 01:41:13;;;;;;;12.93;8.80;;;;;;;;;;6067898;23;19995;-74
2021/08/29 01:43:41;;;;;;;11.82;8.50;;;;;;;;;;6067618;23;20010;-72
2021/08/29 01:46:06;;;;;;;11.57;8.25;;;;;;;;;;6042033;23;20086;-73
2021/08/29 01:48:33;;;;;;;13.45;8.85;;;;;;;;;;6067584;23;20066;-72
2021/08/29 01:51:01;;;;;;;11.73;9.10;;;;;;;;;;6066006;23;20010;-72
2021/08/29 01:53:27;;;;;;;9.20;7.70;;;;;;;;;;6068012;23;20034;-73
2021/08/29 01:55:54;;;;;;;12.85;8.57;;;;;;;;;;6067419;23;20003;-73
2021/08/29 01:58:19;;;;;;;10.98;8.07;;;;;;;;;;6067548;23;20436;-72
2021/08/29 02:00:58;;;;;;;12.07;8.35;;;;;;;;;;6066114;23;20022;-72
2021/08/29 02:03:24;;;;;;;9.73;8.20;;;;;;;;;;6067282;23;20126;-72
2021/08/29 02:05:55;;;;;;;9.43;7.65;;;;;;;;;;6067312;23;20007;-72
2021/08/29 02:08:20;;;;;;;9.93;8.07;;;;;;;;;;6124543;23;20022;-72
2021/08/29 02:10:48;;;;;;;13.32;8.68;;;;;;;;;;6125530;23;20085;-72
2021/08/29 02:13:15;;;;;;;10.95;8.30;;;;;;;;;;6099678;23;20002;-72
2021/08/29 02:15:43;;;;;;;11.70;8.95;;;;;;;;;;6125438;23;19994;-72
2021/08/29 02:18:11;;;;;;;14.15;8.80;;;;;;;;;;6099721;23;20013;-73
2021/08/29 02:20:38;;;;;;;11.93;9.55;;;;;;;;;;6099434;23;20354;-72
2021/08/29 02:23:04;;;;;;;13.88;9.93;;;;;;;;;;6101451;23;20021;-72
2021/08/29 02:25:31;;;;;;;15.40;9.95;;;;;;;;;;6127235;23;20014;-72
2021/08/29 02:27:56;;;;;;;14.65;10.25;;;;;;;;;;6101521;23;20428;-72
2021/08/29 02:30:24;;;;;;;14.20;11.20;;;;;;;;;;6127191;23;20005;-73
2021/08/29 02:32:51;;;;;;;15.77;10.48;;;;;;;;;;6127199;23;20052;-73
2021/08/29 02:35:18;;;;;;;18.42;10.30;;;;;;;;;;6127436;23;19994;-73
2021/08/29 02:37:43;;;;;;;11.75;9.98;;;;;;;;;;6127112;23;20073;-73
2021/08/29 02:40:10;;;;;;;12.23;10.00;;;;;;;;;;6127195;23;20093;-74
2021/08/29 02:42:37;;;;;;;12.05;10.10;;;;;;;;;;6127232;23;20367;-73
2021/08/29 02:45:05;;;;;;;13.48;9.55;;;;;;;;;;6126845;23;20461;-73
2021/08/29 02:47:31;;;;;;;14.93;9.70;;;;;;;;;;6127148;23;19998;-73
2021/08/29 02:49:57;;;;;;;11.85;9.07;;;;;;;;;;6126950;23;20076;-73
2021/08/29 02:52:24;;;;;;;10.88;9.18;;;;;;;;;;6126915;23;20021;-73
2021/08/29 02:54:50;;;;;;;14.77;9.65;;;;;;;;;;6127089;23;20002;-73
2021/08/29 02:57:17;;;;;;;14.32;9.45;;;;;;;;;;6101155;23;20454;-73
2021/08/29 02:59:43;;;;;;;16.10;9.40;;;;;;;;;;6100854;23;20006;-73
2021/08/29 03:02:09;;;;;;;13.27;9.73;;;;;;;;;;6127192;23;20439;-73
2021/08/29 03:04:36;;;;;;;13.52;9.07;;;;;;;;;;6126688;23;20487;-72
2021/08/29 03:07:02;;;;;;;15.10;9.27;;;;;;;;;;6096086;23;20340;-73
2021/08/29 03:09:33;;;;;;;26.08;10.52;;;;;;;;;;6097845;23;19994;-72
2021/08/29 03:12:01;;;;;;;12.57;9.27;;;;;;;;;;6097593;23;19994;-73
2021/08/29 03:14:27;;;;;;;13.82;9.82;;;;;;;;;;6095882;23;20029;-73
2021/08/29 03:16:53;;;;;;;11.00;7.63;;;;;;;;;;6097680;23;20022;-73
2021/08/29 03:19:20;;;;;;;11.90;8.57;;;;;;;;;;6096363;23;20010;-73
2021/08/29 03:21:47;;;;;;;11.40;9.07;;;;;;;;;;6115273;23;20005;-73
2021/08/29 03:24:13;;;;;;;11.95;9.82;;;;;;;;;;6097477;23;19995;-72
2021/08/29 03:26:39;;;;;;;11.77;8.98;;;;;;;;;;6095859;23;20003;-72
2021/08/29 03:29:06;;;;;;;14.45;9.18;;;;;;;;;;6097381;23;20002;-72
2021/08/29 03:31:32;;;;;;;15.00;10.15;;;;;;;;;;6097375;23;20002;-72
2021/08/29 03:33:59;;;;;;;13.70;8.57;;;;;;;;;;6097238;23;19999;-72
2021/08/29 03:36:29;;;;;;;10.70;8.75;;;;;;;;;;6071756;23;20005;-72
2021/08/29 03:38:57;;;;;;;13.27;9.55;;;;;;;;;;6095885;23;20429;-72
2021/08/29 03:41:23;;;;;;;13.77;8.77;;;;;;;;;;6097262;23;20495;-72
2021/08/29 03:43:49;;;;;;;15.23;10.02;;;;;;;;;;6095689;23;20002;-72
2021/08/29 03:46:15;;;;;;;14.75;10.20;;;;;;;;;;6097511;23;20006;-73
2021/08/29 03:48:43;;;;;;;17.27;10.32;;;;;;;;;;6097264;23;19999;-72
2021/08/29 03:51:10;;;;;;;14.10;9.85;;;;;;;;;;6097560;23;20009;-72
2021/08/29 03:53:37;;;;;;;14.82;9.15;;;;;;;;;;6095737;23;20435;-72
2021/08/29 03:56:04;;;;;;;12.70;9.77;;;;;;;;;;6097088;23;19999;-72
2021/08/29 03:58:30;;;;;;;15.73;10.38;;;;;;;;;;6097098;23;20025;-72
2021/08/29 04:00:56;;;;;;;15.70;9.35;;;;;;;;;;6097140;23;20425;-72
2021/08/29 04:03:24;;;;;;;13.95;9.30;;;;;;;;;;6096874;23;20442;-72
2021/08/29 04:05:51;;;;;;;12.65;8.80;;;;;;;;;;6096782;23;20006;-71
2021/08/29 04:08:16;;;;;;;12.00;9.02;;;;;;;;;;6125351;23;20452;-73
2021/08/29 04:10:44;;;;;;;11.30;8.60;;;;;;;;;;6126154;23;20026;-73
2021/08/29 04:13:12;;;;;;;13.95;10.05;;;;;;;;;;6126610;23;20002;-73
2021/08/29 04:15:38;;;;;;;12.75;8.77;;;;;;;;;;6100173;23;20002;-72
2021/08/29 04:18:05;;;;;;;14.30;9.13;;;;;;;;;;6126031;23;20001;-72
2021/08/29 04:20:31;;;;;;;12.32;9.30;;;;;;;;;;6126347;23;20301;-72
2021/08/29 04:22:57;;;;;;;12.75;9.48;;;;;;;;;;6100277;23;20008;-72
2021/08/29 04:25:23;;;;;;;18.15;10.18;;;;;;;;;;6126024;23;20006;-71
2021/08/29 04:27:50;;;;;;;15.73;11.75;;;;;;;;;;6125871;23;20005;-72
2021/08/29 04:30:16;;;;;;;26.38;18.70;;;;;;;;;;6126546;23;19998;-72
2021/08/29 04:32:44;;;;;;;30.30;22.02;;;;;;;;;;6100644;23;20001;-72
2021/08/29 04:35:10;;;;;;;22.48;15.20;;;;;;;;;;6126523;23;20331;-72
2021/08/29 04:37:36;;;;;;;17.08;10.90;;;;;;;;;;6126026;23;19998;-72
2021/08/29 04:40:03;;;;;;;16.08;11.23;;;;;;;;;;6125679;23;20002;-72
2021/08/29 04:42:28;;;;;;;13.45;10.27;;;;;;;;;;6126183;23;20036;-72
2021/08/29 04:44:54;;;;;;;24.85;11.70;;;;;;;;;;6125769;23;20002;-72
2021/08/29 04:47:20;;;;;;;31.77;12.18;;;;;;;;;;6126176;23;20004;-72
2021/08/29 04:49:46;;;;;;;18.45;11.38;;;;;;;;;;6125752;23;20123;-72
2021/08/29 04:52:12;;;;;;;16.63;11.77;;;;;;;;;;6100413;23;20081;-72
2021/08/29 04:54:38;;;;;;;18.02;13.30;;;;;;;;;;6125854;23;20018;-72
2021/08/29 04:57:04;;;;;;;22.73;13.88;;;;;;;;;;6126128;23;20005;-72
2021/08/29 04:59:30;;;;;;;31.80;14.90;;;;;;;;;;6125929;23;20021;-72
2021/08/29 05:01:56;;;;;;;22.38;14.63;;;;;;;;;;6125608;23;20002;-72
2021/08/29 05:04:22;;;;;;;21.60;13.30;;;;;;;;;;6125761;23;20005;-72
2021/08/29 05:06:48;;;;;;;19.02;13.32;;;;;;;;;;6125894;23;20013;-71
2021/08/29 05:09:14;;;;;;;19.10;13.45;;;;;;;;;;6099923;23;20351;-72
2021/08/29 05:11:41;;;;;;;19.88;13.93;;;;;;;;;;6125422;23;20014;-71
2021/08/29 05:14:06;;;;;;;17.92;13.68;;;;;;;;;;6099734;23;20336;-72
2021/08/29 05:16:32;;;;;;;18.48;12.43;;;;;;;;;;6125851;23;19998;-72
2021/08/29 05:18:58;;;;;;;17.73;12.50;;;;;;;;;;6130198;23;20077;-73
2021/08/29 05:21:24;;;;;;;13.80;11.07;;;;;;;;;;6135957;23;19998;-73
2021/08/29 05:23:50;;;;;;;10.48;8.95;;;;;;;;;;6125381;23;20002;-71
2021/08/29 05:26:16;;;;;;;13.18;7.57;;;;;;;;;;6125544;23;20339;-72
2021/08/29 05:28:42;;;;;;;9.48;6.85;;;;;;;;;;6099582;23;20010;-72
2021/08/29 05:31:08;;;;;;;6.00;4.72;;;;;;;;;;6125840;23;19994;-72
2021/08/29 05:33:34;;;;;;;5.00;4.35;;;;;;;;;;6125683;23;20045;-72
2021/08/29 05:36:00;;;;;;;4.75;4.25;;;;;;;;;;6125301;23;20002;-72
2021/08/29 05:38:27;;;;;;;7.57;4.32;;;;;;;;;;6125565;23;20325;-72
2021/08/29 05:41:18;;;;;;;6.13;4.30;;;;;;;;;;6125456;23;20313;-71
2021/08/29 05:43:55;;;;;;;5.00;4.47;;;;;;;;;;6125413;23;20498;-73
2021/08/29 05:46:22;;;;;;;5.93;4.70;;;;;;;;;;6076927;23;20014;-72
2021/08/29 05:48:50;;;;;;;5.07;4.35;;;;;;;;;;6125648;23;20313;-72
2021/08/29 05:51:15;;;;;;;5.77;4.47;;;;;;;;;;6125440;23;20004;-72
2021/08/29 05:53:41;;;;;;;5.70;3.95;;;;;;;;;;6125484;23;20434;-71
2021/08/29 05:56:07;;;;;;;4.00;3.35;;;;;;;;;;6126558;23;20002;-72
2021/08/29 05:58:33;;;;;;;4.63;3.35;;;;;;;;;;6077639;23;20005;-72
2021/08/29 06:01:02;;;;;;;6.72;5.03;;;;;;;;;;6101705;23;20005;-72
2021/08/29 06:03:27;;;;;;;7.05;3.60;;;;;;;;;;6127458;23;20005;-72
2021/08/29 06:05:53;;;;;;;5.78;4.35;;;;;;;;;;6126856;23;20089;-72
2021/08/29 06:08:20;;;;;;;8.07;3.72;;;;;;;;;;6127209;23;20026;-72
2021/08/29 06:10:46;;;;;;;6.28;3.70;;;;;;;;;;6077424;23;20012;-72
2021/08/29 06:13:11;;;;;;;6.57;4.45;;;;;;;;;;6127579;23;20008;-72
2021/08/29 06:15:38;;;;;;;8.60;3.90;;;;;;;;;;6127186;23;20426;-72
2021/08/29 06:18:04;;;;;;;5.63;3.15;;;;;;;;;;6127097;23;20002;-72
2021/08/29 06:20:31;;;;;;;5.18;3.17;;;;;;;;;;6127315;23;20067;-72
2021/08/29 06:22:56;;;;;;;4.75;3.85;;;;;;;;;;6101288;23;20097;-72
2021/08/29 06:25:21;;;;;;;6.25;3.80;;;;;;;;;;6127198;23;20037;-72
2021/08/29 06:27:48;;;;;;;5.18;3.38;;;;;;;;;;6101010;23;20006;-72
2021/08/29 06:30:14;;;;;;;5.38;3.55;;;;;;;;;;6127181;23;20006;-72
2021/08/29 06:32:39;;;;;;;4.20;3.50;;;;;;;;;;6127107;23;20080;-72
2021/08/29 06:35:05;;;;;;;5.70;3.05;;;;;;;;;;6127017;23;20424;-72
2021/08/29 06:37:31;;;;;;;4.47;3.42;;;;;;;;;;6101174;23;19998;-72
2021/08/29 06:39:57;;;;;;;3.38;3.08;;;;;;;;;;6100732;23;20336;-72
2021/08/29 06:42:23;;;;;;;4.68;3.88;;;;;;;;;;6101334;23;19998;-72
2021/08/29 06:44:49;;;;;;;4.65;3.47;;;;;;;;;;6101032;23;20009;-72
2021/08/29 06:47:15;;;;;;;5.07;3.67;;;;;;;;;;6127174;23;20073;-72
2021/08/29 06:49:41;;;;;;;4.47;3.67;;;;;;;;;;6126499;23;20001;-71
2021/08/29 06:52:07;;;;;;;3.63;3.17;;;;;;;;;;6076804;23;20010;-72
2021/08/29 06:54:33;;;;;;;4.00;3.03;;;;;;;;;;6127036;23;20005;-72
2021/08/29 06:56:59;;;;;;;3.88;3.17;;;;;;;;;;6101069;23;20010;-72
2021/08/29 06:59:25;;;;;;;6.32;3.30;;;;;;;;;;6127049;23;20049;-72
2021/08/29 07:01:51;;;;;;;4.13;3.33;;;;;;;;;;6126413;23;20102;-72
2021/08/29 07:04:17;;;;;;;5.85;4.07;;;;;;;;;;6126642;23;20420;-71
2021/08/29 07:06:43;;;;;;;5.97;3.25;;;;;;;;;;6126246;23;20025;-72
2021/08/29 07:09:13;;;;;;;4.18;3.55;;;;;;;;;;6127094;23;20432;-72
2021/08/29 07:11:39;;;;;;;4.03;3.03;;;;;;;;;;6100840;23;20005;-72
2021/08/29 07:14:05;;;;;;;4.90;3.55;;;;;;;;;;6126444;23;20053;-72
2021/08/29 07:16:31;;;;;;;5.38;4.13;;;;;;;;;;6126730;23;20486;-73
2021/08/29 07:18:57;;;;;;;4.80;3.00;;;;;;;;;;6100657;23;20002;-73
2021/08/29 07:21:24;;;;;;;5.72;3.60;;;;;;;;;;6126984;23;20317;-73
2021/08/29 07:23:49;;;;;;;4.82;3.60;;;;;;;;;;6127715;23;20313;-72
2021/08/29 07:26:15;;;;;;;4.40;3.85;;;;;;;;;;6127282;23;20117;-72
2021/08/29 07:28:42;;;;;;;4.10;3.50;;;;;;;;;;6126657;23;20072;-72
2021/08/29 07:31:08;;;;;;;3.95;3.22;;;;;;;;;;6100929;23;19998;-72
2021/08/29 07:33:34;;;;;;;4.78;2.88;;;;;;;;;;6126600;23;20004;-72
2021/08/29 07:36:01;;;;;;;5.25;3.70;;;;;;;;;;6126209;23;19994;-72
2021/08/29 07:38:27;;;;;;;7.05;4.00;;;;;;;;;;6126691;23;20004;-72
2021/08/29 07:40:52;;;;;;;5.38;3.92;;;;;;;;;;6126578;23;20424;-72
2021/08/29 07:43:18;;;;;;;6.63;4.28;;;;;;;;;;6126710;23;20008;-72
2021/08/29 07:45:44;;;;;;;2.90;2.58;;;;;;;;;;6100381;23;20414;-73
2021/08/29 07:48:11;;;;;;;3.15;2.67;;;;;;;;;;6126281;23;20339;-72
2021/08/29 07:50:37;;;;;;;3.83;3.45;;;;;;;;;;6126543;23;20029;-72
2021/08/29 07:53:02;;;;;;;5.18;3.85;;;;;;;;;;6126464;23;20036;-72
2021/08/29 07:55:29;;;;;;;6.57;4.25;;;;;;;;;;6100605;23;20331;-72
2021/08/29 07:57:55;;;;;;;5.10;4.60;;;;;;;;;;6126168;23;20436;-71
2021/08/29 08:00:21;;;;;;;5.35;3.67;;;;;;;;;;6100291;23;20002;-71
2021/08/29 08:02:47;;;;;;;6.00;3.53;;;;;;;;;;6126169;23;20420;-71
2021/08/29 08:05:13;;;;;;;4.22;2.60;;;;;;;;;;6126445;23;20119;-71
2021/08/29 08:07:39;;;;;;;7.22;3.70;;;;;;;;;;6125688;23;20026;-72
2021/08/29 08:10:05;;;;;;;5.00;3.72;;;;;;;;;;6125886;23;20010;-72
2021/08/29 08:12:32;;;;;;;6.20;3.40;;;;;;;;;;6126283;23;20551;-72
2021/08/29 08:14:57;;;;;;;5.20;2.55;;;;;;;;;;6126289;23;20004;-72
2021/08/29 08:17:23;;;;;;;6.57;3.58;;;;;;;;;;6126119;23;20092;-71
2021/08/29 08:19:50;;;;;;;4.60;3.58;;;;;;;;;;6099707;23;20006;-72
2021/08/29 08:22:15;;;;;;;7.22;4.07;;;;;;;;;;6126444;23;20332;-72
2021/08/29 08:24:41;;;;;;;5.65;4.47;;;;;;;;;;6125923;23;20006;-72
2021/08/29 08:27:07;;;;;;;4.57;3.90;;;;;;;;;;6126326;23;20084;-72
2021/08/29 08:29:33;;;;;;;5.22;3.55;;;;;;;;;;6126027;23;20060;-72
2021/08/29 08:31:59;;;;;;;4.15;3.22;;;;;;;;;;6125758;23;20005;-72
2021/08/29 08:34:25;;;;;;;3.75;2.65;;;;;;;;;;6100385;23;20301;-72
2021/08/29 08:36:50;;;;;;;5.57;3.50;;;;;;;;;;6126050;23;20005;-72
2021/08/29 08:39:17;;;;;;;3.80;2.85;;;;;;;;;;6126019;23;20006;-72
2021/08/29 08:41:43;;;;;;;3.40;2.17;;;;;;;;;;6099928;23;20313;-71
2021/08/29 08:44:08;;;;;;;4.53;3.42;;;;;;;;;;6125812;23;20081;-72
2021/08/29 08:46:34;;;;;;;5.18;3.67;;;;;;;;;;6125813;23;20470;-72
2021/08/29 08:49:01;;;;;;;4.80;3.70;;;;;;;;;;6099757;23;20010;-71
2021/08/29 08:51:28;;;;;;;4.90;3.03;;;;;;;;;;6094190;23;19998;-72
2021/08/29 08:53:54;;;;;;;3.33;2.42;;;;;;;;;;6118341;23;20020;-72
2021/08/29 08:56:21;;;;;;;3.88;2.92;;;;;;;;;;6125940;23;20073;-72
2021/08/29 08:58:48;;;;;;;4.88;2.75;;;;;;;;;;6094266;23;20009;-72
2021/08/29 09:01:14;;;;;;;4.03;2.95;;;;;;;;;;6124915;23;20005;-72
2021/08/29 09:03:40;;;;;;;3.13;2.10;;;;;;;;;;6125510;23;20006;-72
2021/08/29 09:06:07;;;;;;;3.80;2.55;;;;;;;;;;6125387;23;20064;-72
2021/08/29 09:08:34;;;;;;;2.40;2.00;;;;;;;;;;6094026;23;20026;-72
2021/08/29 09:11:01;;;;;;;2.75;2.33;;;;;;;;;;6124136;23;20005;-72
2021/08/29 09:13:27;;;;;;;2.75;2.40;;;;;;;;;;6125966;23;20045;-72
2021/08/29 09:16:12;;;;;;;5.00;2.60;;;;;;;;;;6125503;23;20002;-72
2021/08/29 09:18:46;;;;;;;3.13;2.25;;;;;;;;;;6125732;23;20002;-72
2021/08/29 09:21:18;;;;;;;3.03;2.10;;;;;;;;;;6099881;23;20006;-72
2021/08/29 09:23:47;;;;;;;3.25;2.10;;;;;;;;;;6099798;23;20372;-72
2021/08/29 09:26:14;;;;;;;4.18;2.70;;;;;;;;;;6076097;23;20395;-72
2021/08/29 09:28:40;;;;;;;5.38;2.40;;;;;;;;;;6125489;23;20348;-72
2021/08/29 09:31:06;;;;;;;2.70;2.20;;;;;;;;;;6102242;23;20053;-73
2021/08/29 09:33:33;;;;;;;2.97;2.10;;;;;;;;;;6131885;23;20424;-72
2021/08/29 09:35:58;;;;;;;3.45;1.90;;;;;;;;;;6102901;23;20002;-72
2021/08/29 09:38:24;;;;;;;2.03;1.92;;;;;;;;;;6128896;23;20012;-72
2021/08/29 09:40:50;;;;;;;2.42;1.60;;;;;;;;;;6128888;23;20006;-71
2021/08/29 09:43:16;;;;;;;1.98;1.60;;;;;;;;;;6128817;23;20008;-72
2021/08/29 09:45:43;;;;;;;1.77;1.60;;;;;;;;;;6102721;23;20017;-70
2021/08/29 09:48:09;;;;;;;1.92;1.73;;;;;;;;;;6102695;23;20002;-72
2021/08/29 09:50:37;;;;;;;2.60;1.95;;;;;;;;;;6103153;23;20081;-73
2021/08/29 09:53:10;;;;;;;2.78;1.80;;;;;;;;;;6102823;23;20073;-72
2021/08/29 09:55:38;;;;;;;1.40;1.30;;;;;;;;;;6103125;23;20002;-72
2021/08/29 09:58:23;;;;;;;2.63;1.73;;;;;;;;;;6128491;23;20069;-72
2021/08/29 10:01:09;;;;;;;3.35;1.50;;;;;;;;;;6102842;23;20002;-72
2021/08/29 10:03:35;;;;;;;3.88;1.70;;;;;;;;;;6103016;23;20371;-72
2021/08/29 10:06:18;;;;;;;2.13;1.50;;;;;;;;;;6102417;23;20014;-71
2021/08/29 10:08:48;;;;;;;3.53;1.90;;;;;;;;;;6128701;23;20034;-71
2021/08/29 10:11:14;;;;;;;5.13;1.77;;;;;;;;;;6097664;23;20002;-71
2021/08/29 10:13:41;;;;;;;3.72;1.73;;;;;;;;;;6127766;23;20559;-71
2021/08/29 10:16:08;;;;;;;1.90;1.65;;;;;;;;;;6128500;23;20002;-73
2021/08/29 10:18:36;;;;;;;3.40;1.70;;;;;;;;;;6103075;23;20021;-72
2021/08/29 10:21:15;;;;;;;3.22;1.55;;;;;;;;;;6129208;23;19998;-72
2021/08/29 10:23:43;;;;;;;3.72;1.90;;;;;;;;;;6102751;23;20096;-72
2021/08/29 10:26:09;;;;;;;2.57;1.50;;;;;;;;;;6102407;23;20009;-72
2021/08/29 10:28:53;;;;;;;1.70;1.60;;;;;;;;;;6128740;23;20423;-72
2021/08/29 10:31:22;;;;;;;4.47;1.60;;;;;;;;;;6128606;23;20006;-72
2021/08/29 10:33:47;;;;;;;;;;;;;;;;;;6103363;23;20006;-72
2021/08/29 10:36:15;;;;;;;3.27;1.37;;;;;;;;;;6103260;23;20227;-72
2021/08/29 10:38:41;;;;;;;1.77;1.30;;;;;;;;;;6102957;23;20081;-72
2021/08/29 10:41:08;;;;;;;1.65;1.42;;;;;;;;;;6128743;23;20076;-72
2021/08/29 10:43:36;;;;;;;2.08;1.60;;;;;;;;;;6126912;23;20320;-72
2021/08/29 10:46:02;;;;;;;2.70;1.17;;;;;;;;;;6100735;23;20348;-72
2021/08/29 10:48:28;;;;;;;1.58;1.40;;;;;;;;;;6127657;23;20002;-72
2021/08/29 10:50:56;;;;;;;2.90;1.30;;;;;;;;;;6127145;23;19997;-72
2021/08/29 10:53:29;;;;;;;2.60;1.50;;;;;;;;;;6101139;23;20081;-72
2021/08/29 10:56:14;;;;;;;1.98;1.48;;;;;;;;;;6126723;23;20002;-72
2021/08/29 10:58:41;;;;;;;2.63;1.40;;;;;;;;;;6126757;23;20006;-72
2021/08/29 11:01:26;;;;;;;2.08;1.20;;;;;;;;;;6127133;23;19997;-71
2021/08/29 11:03:52;;;;;;;2.40;1.73;;;;;;;;;;6070497;23;20002;-72
2021/08/29 11:06:36;;;;;;;1.50;1.40;;;;;;;;;;6094025;23;20022;-72
2021/08/29 11:09:21;;;;;;;1.90;1.27;;;;;;;;;;6126720;23;19994;-72
2021/08/29 11:11:50;;;;;;;1.83;1.30;;;;;;;;;;6126764;23;20021;-72
2021/08/29 11:14:34;;;;;;;2.88;1.23;;;;;;;;;;6122743;23;20097;-72
2021/08/29 11:17:11;;;;;;;1.50;1.20;;;;;;;;;;6126800;23;19998;-72
2021/08/29 11:19:38;;;;;;;1.77;1.20;;;;;;;;;;6126811;23;20384;-72
2021/08/29 11:22:12;;;;;;;2.78;1.10;;;;;;;;;;6100416;23;20009;-72
2021/08/29 11:24:51;;;;;;;2.65;1.05;;;;;;;;;;6126742;23;19994;-72
2021/08/29 11:27:17;;;;;;;;;;;;;;;;;;6127320;23;19998;-72
2021/08/29 11:29:53;;;;;;;4.72;1.27;;;;;;;;;;6126650;23;19907;-71
2021/08/29 11:32:37;;;;;;;1.17;1.08;;;;;;;;;;6126890;23;20076;-72
2021/08/29 11:35:04;;;;;;;2.42;1.30;;;;;;;;;;6126645;23;19998;-72
2021/08/29 11:37:30;;;;;;;1.58;1.10;;;;;;;;;;6126746;23;20006;-72
2021/08/29 11:40:01;;;;;;;1.52;1.10;;;;;;;;;;6077071;23;20049;-73
2021/08/29 11:42:28;;;;;;;1.30;1.20;;;;;;;;;;6126780;23;20305;-72
2021/08/29 11:44:54;;;;;;;1.35;1.25;;;;;;;;;;6126458;23;19998;-72
2021/08/29 11:47:22;;;;;;;2.33;1.02;;;;;;;;;;6126974;23;20069;-72
2021/08/29 11:49:56;;;;;;;2.53;1.42;;;;;;;;;;6100210;23;20002;-72
2021/08/29 11:52:28;;;;;;;1.98;0.90;;;;;;;;;;6126687;23;20446;-72
2021/08/29 11:55:07;;;;;;;1.17;1.00;;;;;;;;;;6126214;23;19998;-72
2021/08/29 11:57:40;;;;;;;1.77;1.02;;;;;;;;;;6126487;23;20004;-72
2021/08/29 12:00:07;;;;;;;1.58;1.30;;;;;;;;;;6126101;23;20057;-72
2021/08/29 12:02:37;;;;;;;2.42;1.05;;;;;;;;;;6100742;23;19998;-72
2021/08/29 12:05:07;;;;;;;1.45;0.88;;;;;;;;;;6126231;23;20452;-72
2021/08/29 12:07:36;;;;;;;1.83;1.10;;;;;;;;;;6125907;23;20040;-72
2021/08/29 12:10:02;;;;;;;3.35;1.50;;;;;;;;;;6126077;23;19994;-72
2021/08/29 12:12:28;;;;;;;1.83;1.50;;;;;;;;;;6070642;23;20002;-72
2021/08/29 12:14:54;;;;;;;3.50;1.52;;;;;;;;;;6119162;23;20005;-71
2021/08/29 12:17:21;;;;;;;1.73;1.20;;;;;;;;;;6100653;23;20005;-72
2021/08/29 12:19:50;;;;;;;1.35;1.15;;;;;;;;;;6126008;23;20443;-71
2021/08/29 12:22:19;;;;;;;1.52;1.10;;;;;;;;;;6126396;23;19997;-72
2021/08/29 12:24:44;;;;;;;1.37;1.17;;;;;;;;;;6126077;23;20336;-72
2021/08/29 12:27:18;;;;;;;1.10;0.90;;;;;;;;;;6126267;23;20220;-73
2021/08/29 12:29:49;;;;;;;1.50;1.40;;;;;;;;;;6125993;23;20423;-73
2021/08/29 12:32:16;;;;;;;1.73;1.35;;;;;;;;;;6076265;23;20002;-73
2021/08/29 12:34:49;;;;;;;2.38;1.25;;;;;;;;;;6125843;23;20332;-73
2021/08/29 12:37:15;;;;;;;1.90;1.23;;;;;;;;;;6126189;23;20021;-72
2021/08/29 12:39:41;;;;;;;17.35;3.08;;;;;;;;;;6126060;23;20005;-72
2021/08/29 12:42:14;;;;;;;2.70;1.40;;;;;;;;;;6125827;23;19994;-73
2021/08/29 12:44:40;;;;;;;2.47;1.33;;;;;;;;;;6099921;23;20010;-72
2021/08/29 12:47:07;;;;;;;3.40;1.45;;;;;;;;;;6099868;23;20428;-72
2021/08/29 12:49:33;;;;;;;5.63;1.75;;;;;;;;;;6125826;23;19994;-72
2021/08/29 12:51:58;;;;;;;2.28;1.58;;;;;;;;;;6075856;23;20383;-72
2021/08/29 12:54:24;;;;;;;2.95;1.65;;;;;;;;;;6125956;23;20002;-72
2021/08/29 12:56:53;;;;;;;9.77;1.80;;;;;;;;;;6125933;23;20394;-72
2021/08/29 12:59:26;;;;;;;1.63;1.27;;;;;;;;;;6099846;23;20002;-72
2021/08/29 13:01:53;;;;;;;3.10;1.50;;;;;;;;;;6125499;23;19998;-72
2021/08/29 13:04:26;;;;;;;9.05;1.65;;;;;;;;;;6126051;23;19994;-72
2021/08/29 13:07:05;;;;;;;1.90;1.50;;;;;;;;;;6094887;23;20105;-72
2021/08/29 13:09:39;;;;;;;1.30;1.20;;;;;;;;;;6099730;23;20048;-72
2021/08/29 13:12:06;;;;;;;1.83;1.15;;;;;;;;;;6096376;23;20006;-72
2021/08/29 13:14:34;;;;;;;1.50;1.30;;;;;;;;;;6096215;23;20054;-72
2021/08/29 13:17:15;;;;;;;2.65;1.20;;;;;;;;;;6071594;23;20010;-72
2021/08/29 13:19:41;;;;;;;4.65;1.40;;;;;;;;;;6096543;23;19999;-72
2021/08/29 13:22:07;;;;;;;2.55;1.40;;;;;;;;;;6096236;23;20487;-72
2021/08/29 13:24:35;;;;;;;2.20;1.30;;;;;;;;;;6096446;23;20336;-72
2021/08/29 13:27:02;;;;;;;2.42;1.40;;;;;;;;;;6094912;23;20069;-72
2021/08/29 13:29:36;;;;;;;1.90;1.40;;;;;;;;;;6096490;23;19998;-72
2021/08/29 13:32:02;;;;;;;1.20;1.08;;;;;;;;;;6096271;23;20305;-72
2021/08/29 13:34:29;;;;;;;2.33;1.10;;;;;;;;;;6096435;23;20069;-72
2021/08/29 13:36:55;;;;;;;1.58;1.20;;;;;;;;;;6096461;23;19995;-72
2021/08/29 13:39:52;;;;;;;3.72;1.27;;;;;;;;;;6097063;23;20061;-73
2021/08/29 13:42:20;;;;;;;1.15;0.90;;;;;;;;;;6097377;23;19994;-72
2021/08/29 13:44:47;;;;;;;2.47;0.98;;;;;;;;;;6094679;23;20002;-72
2021/08/29 13:47:16;;;;;;;3.08;1.58;;;;;;;;;;6095107;23;20070;-72
2021/08/29 13:49:42;;;;;;;2.40;1.60;;;;;;;;;;6096516;23;20378;-72
2021/08/29 13:52:08;;;;;;;1.27;1.17;;;;;;;;;;6095914;23;20003;-72
2021/08/29 13:54:34;;;;;;;1.17;0.95;;;;;;;;;;6096422;23;20392;-72
2021/08/29 13:56:59;;;;;;;2.10;1.40;;;;;;;;;;6096368;23;20009;-71
2021/08/29 13:59:25;;;;;;;3.85;1.52;;;;;;;;;;6094913;23;19998;-72
2021/08/29 14:01:56;;;;;;;4.93;1.83;;;;;;;;;;6094469;23;20495;-72
2021/08/29 14:04:23;;;;;;;2.53;1.58;;;;;;;;;;6095191;23;20033;-72
2021/08/29 14:06:49;;;;;;;4.45;2.30;;;;;;;;;;6102113;23;20022;-72
2021/08/29 14:09:15;;;;;;;4.18;2.03;;;;;;;;;;6125639;23;20081;-72
2021/08/29 14:11:41;;;;;;;8.20;3.97;;;;;;;;;;6099611;23;20006;-72
2021/08/29 14:14:21;;;;;;;7.53;3.88;;;;;;;;;;6125170;23;20002;-72
2021/08/29 14:16:46;;;;;;;;;;;;;;;;;;6126506;23;19998;-72
2021/08/29 14:19:12;;;;;;;5.00;2.30;;;;;;;;;;6127121;23;20374;-72
2021/08/29 14:21:38;;;;;;;5.50;1.40;;;;;;;;;;6127339;23;20002;-72
2021/08/29 14:24:04;;;;;;;3.47;1.13;;;;;;;;;;6127002;23;20008;-72
2021/08/29 14:26:30;;;;;;;2.25;1.10;;;;;;;;;;6127008;23;20498;-72
2021/08/29 14:28:55;;;;;;;0.80;0.80;;;;;;;;;;6126872;23;20002;-72
2021/08/29 14:31:21;;;;;;;2.85;1.02;;;;;;;;;;6127147;23;20073;-72
2021/08/29 14:33:47;;;;;;;1.50;1.40;;;;;;;;;;6126545;23;20420;-72
2021/08/29 14:36:13;;;;;;;2.92;2.10;;;;;;;;;;6127018;23;19994;-72
2021/08/29 14:38:39;;;;;;;2.35;2.05;;;;;;;;;;6126902;23;20479;-72
2021/08/29 14:41:05;;;;;;;1.63;1.52;;;;;;;;;;6126778;23;20034;-72